createdAt,value
2023-03-19T00:01:04.816Z,2.58
2023-03-19T00:03:42.772Z,2.52
2023-03-19T00:06:10.927Z,2.46
2023-03-19T00:08:39.129Z,2.42
2023-03-19T00:11:09.417Z,2.40
2023-03-19T00:13:37.525Z,2.38
2023-03-19T00:16:07.253Z,2.36
2023-03-19T00:18:35.497Z,2.34
2023-03-19T00:21:03.939Z,2.33
2023-03-19T00:23:32.038Z,2.31
2023-03-19T00:26:00.118Z,2.28
2023-03-19T00:28:28.510Z,2.26
2023-03-19T00:30:57.402Z,2.23
2023-03-19T00:33:26.645Z,2.19
2023-03-19T00:35:55.733Z,2.15
2023-03-19T00:38:24.185Z,2.12
2023-03-19T00:40:52.311Z,2.11
2023-03-19T00:43:20.464Z,2.09
2023-03-19T00:45:48.648Z,2.07
2023-03-19T00:48:17.488Z,2.02
2023-03-19T00:50:45.790Z,1.99
2023-03-19T00:53:14.101Z,1.95
2023-03-19T00:55:42.372Z,1.88
2023-03-19T00:58:10.966Z,1.83
2023-03-19T01:00:40.073Z,1.78
2023-03-19T01:03:08.194Z,1.72
2023-03-19T01:08:04.729Z,1.58
2023-03-19T01:10:34.872Z,1.52
2023-03-19T01:13:03.496Z,1.47
2023-03-19T01:15:38.859Z,1.43
2023-03-19T01:18:07.876Z,1.37
2023-03-19T01:20:38.050Z,1.34
2023-03-19T01:23:07.167Z,1.29
2023-03-19T01:25:35.729Z,1.23
2023-03-19T01:28:06.062Z,1.17
2023-03-19T01:30:34.416Z,1.11
2023-03-19T01:33:22.555Z,1.07
2023-03-19T01:36:03.212Z,0.99
2023-03-19T01:38:38.223Z,0.92
2023-03-19T01:41:10.699Z,0.86
2023-03-19T01:43:39.144Z,0.80
2023-03-19T01:46:37.750Z,0.74
2023-03-19T01:49:31.889Z,0.66
2023-03-19T01:52:16.917Z,0.61
2023-03-19T01:55:09.452Z,0.55
2023-03-19T01:57:51.258Z,0.50
2023-03-19T02:00:51.432Z,0.46
2023-03-19T02:03:19.623Z,0.40
2023-03-19T02:06:12.325Z,0.34
2023-03-19T02:08:41.609Z,0.30
2023-03-19T02:11:10.621Z,0.26
2023-03-19T02:13:39.019Z,0.22
2023-03-19T02:16:07.659Z,0.17
2023-03-19T02:18:36.778Z,0.14
2023-03-19T02:21:12.136Z,0.11
2023-03-19T02:23:55.621Z,0.08
2023-03-19T02:26:36.972Z,-0.01
2023-03-19T02:29:06.184Z,-0.08
2023-03-19T02:31:36.538Z,-0.14
2023-03-19T02:34:26.761Z,-0.18
2023-03-19T02:37:00.090Z,-0.23
2023-03-19T02:39:44.198Z,-0.26
2023-03-19T02:42:14.833Z,-0.27
2023-03-19T02:44:43.437Z,-0.27
2023-03-19T02:47:12.151Z,-0.26
2023-03-19T02:49:40.389Z,-0.24
2023-03-19T02:52:08.977Z,-0.24
2023-03-19T02:54:37.084Z,-0.24
2023-03-19T02:57:05.598Z,-0.25
2023-03-19T02:59:34.098Z,-0.26
2023-03-19T03:02:02.648Z,-0.27
2023-03-19T03:04:32.105Z,-0.28
2023-03-19T03:07:00.978Z,-0.28
2023-03-19T03:09:29.183Z,-0.27
2023-03-19T03:11:57.315Z,-0.28
2023-03-19T03:14:25.537Z,-0.32
2023-03-19T03:16:53.644Z,-0.31
2023-03-19T03:19:21.739Z,-0.31
2023-03-19T03:21:49.865Z,-0.31
2023-03-19T03:24:17.918Z,-0.30
2023-03-19T03:26:46.322Z,-0.27
2023-03-19T03:29:16.747Z,-0.22
2023-03-19T03:31:44.899Z,-0.20
2023-03-19T03:34:13.067Z,-0.15
2023-03-19T03:36:41.193Z,-0.13
2023-03-19T03:39:09.223Z,-0.11
2023-03-19T03:41:37.615Z,-0.10
2023-03-19T03:44:06.053Z,-0.10
2023-03-19T03:46:35.412Z,-0.10
2023-03-19T03:49:03.522Z,-0.09
2023-03-19T03:51:32.943Z,-0.11
2023-03-19T03:54:01.429Z,-0.11
2023-03-19T03:56:29.690Z,-0.12
2023-03-19T03:58:58.018Z,-0.13
2023-03-19T04:01:26.067Z,-0.17
2023-03-19T04:03:54.807Z,-0.22
2023-03-19T04:06:25.111Z,-0.29
2023-03-19T04:09:17.239Z,-0.34
2023-03-19T04:11:45.640Z,-0.38
2023-03-19T04:14:13.913Z,-0.40
2023-03-19T04:16:44.166Z,-0.42
2023-03-19T04:19:12.398Z,-0.44
2023-03-19T04:21:40.496Z,-0.45
2023-03-19T04:24:10.582Z,-0.41
2023-03-19T04:26:39.048Z,-0.39
2023-03-19T04:29:08.812Z,-0.36
2023-03-19T04:31:37.070Z,-0.37
2023-03-19T04:34:05.907Z,-0.33
2023-03-19T04:36:34.078Z,-0.30
2023-03-19T04:39:02.228Z,-0.29
2023-03-19T04:41:30.550Z,-0.24
2023-03-19T04:44:06.370Z,-0.24
2023-03-19T04:46:35.467Z,-0.25
2023-03-19T04:49:03.759Z,-0.27
2023-03-19T04:51:32.559Z,-0.26
2023-03-19T04:54:00.985Z,-0.20
2023-03-19T04:56:29.273Z,-0.17
2023-03-19T04:58:57.419Z,-0.16
2023-03-19T05:01:25.608Z,-0.15
2023-03-19T05:04:02.406Z,-0.14
2023-03-19T05:06:32.242Z,-0.16
2023-03-19T05:09:00.863Z,-0.18
2023-03-19T05:11:28.892Z,-0.22
2023-03-19T05:14:16.230Z,-0.24
2023-03-19T05:17:04.859Z,-0.28
2023-03-19T05:19:43.969Z,-0.30
2023-03-19T05:22:12.088Z,-0.27
2023-03-19T05:24:40.381Z,-0.22
2023-03-19T05:27:09.262Z,-0.15
2023-03-19T05:30:13.053Z,-0.07
2023-03-19T05:33:00.118Z,0.00
2023-03-19T05:35:41.029Z,0.05
2023-03-19T05:38:29.396Z,0.08
2023-03-19T05:41:05.161Z,0.16
2023-03-19T05:44:05.852Z,0.34
2023-03-19T05:46:57.355Z,0.53
2023-03-19T05:49:27.690Z,0.66
2023-03-19T05:51:55.824Z,0.81
2023-03-19T05:54:24.812Z,0.94
2023-03-19T05:57:05.198Z,1.05
2023-03-19T05:59:40.230Z,1.18
2023-03-19T06:02:20.892Z,1.33
2023-03-19T06:04:49.524Z,1.50
2023-03-19T06:07:18.895Z,1.68
2023-03-19T06:09:47.129Z,1.89
2023-03-19T06:12:16.477Z,2.07
2023-03-19T06:14:44.773Z,2.23
2023-03-19T06:17:45.008Z,2.38
2023-03-19T06:20:14.042Z,2.54
2023-03-19T06:22:43.705Z,2.69
2023-03-19T06:25:12.151Z,2.86
2023-03-19T06:27:40.355Z,3.04
2023-03-19T06:30:19.350Z,3.20
2023-03-19T06:32:47.649Z,3.39
2023-03-19T06:35:15.893Z,3.54
2023-03-19T06:37:45.328Z,3.70
2023-03-19T06:40:13.917Z,3.87
2023-03-19T06:42:45.918Z,4.04
2023-03-19T06:45:16.600Z,4.23
2023-03-19T06:47:45.504Z,4.41
2023-03-19T06:50:18.010Z,4.59
2023-03-19T06:52:46.714Z,4.76
2023-03-19T06:55:14.982Z,4.92
2023-03-19T06:57:43.267Z,5.07
2023-03-19T07:00:11.974Z,5.23
2023-03-19T07:02:40.318Z,5.37
2023-03-19T07:05:08.736Z,5.50
2023-03-19T07:07:37.050Z,5.65
2023-03-19T07:10:06.638Z,5.80
2023-03-19T07:12:34.824Z,5.95
2023-03-19T07:15:04.817Z,6.11
2023-03-19T07:17:32.884Z,6.27
2023-03-19T07:20:01.016Z,6.43
2023-03-19T07:22:29.135Z,6.58
2023-03-19T07:24:57.178Z,6.74
2023-03-19T07:27:25.400Z,6.89
2023-03-19T07:29:55.613Z,7.06
2023-03-19T07:32:23.671Z,7.23
2023-03-19T07:34:51.786Z,7.41
2023-03-19T07:37:22.390Z,7.57
2023-03-19T07:39:50.882Z,7.72
2023-03-19T07:42:19.075Z,7.89
2023-03-19T07:44:47.164Z,8.06
2023-03-19T07:47:27.992Z,8.24
2023-03-19T07:49:57.898Z,8.43
2023-03-19T07:52:27.075Z,8.59
2023-03-19T07:54:55.756Z,8.74
2023-03-19T07:57:25.476Z,8.90
2023-03-19T07:59:54.001Z,9.07
2023-03-19T08:02:23.556Z,9.22
2023-03-19T08:04:52.181Z,9.36
2023-03-19T08:07:20.677Z,9.53
2023-03-19T08:09:49.247Z,9.68
2023-03-19T08:12:17.443Z,9.84
2023-03-19T08:14:45.529Z,10.00
2023-03-19T08:17:13.663Z,10.14
2023-03-19T08:19:41.847Z,10.26
2023-03-19T08:22:10.778Z,10.38
2023-03-19T08:24:38.923Z,10.51
2023-03-19T08:27:08.124Z,10.65
2023-03-19T08:29:36.702Z,10.78
2023-03-19T08:32:05.024Z,10.91
2023-03-19T08:34:33.605Z,11.03
2023-03-19T08:37:02.331Z,11.15
2023-03-19T08:39:30.367Z,11.32
2023-03-19T08:41:58.509Z,11.47
2023-03-19T08:44:26.696Z,11.61
2023-03-19T08:46:54.900Z,11.74
2023-03-19T08:49:23.051Z,11.86
2023-03-19T08:51:51.427Z,11.97
2023-03-19T08:54:22.174Z,12.09
2023-03-19T08:56:51.360Z,12.23
2023-03-19T08:59:20.105Z,12.39
2023-03-19T09:01:52.976Z,12.52
2023-03-19T09:04:22.232Z,12.66
2023-03-19T09:06:53.414Z,12.75
2023-03-19T09:09:24.176Z,12.86
2023-03-19T09:11:52.214Z,13.00
2023-03-19T09:14:20.709Z,13.18
2023-03-19T09:16:49.257Z,13.39
2023-03-19T09:19:17.516Z,13.50
2023-03-19T09:21:46.412Z,13.60
2023-03-19T09:24:15.497Z,13.70
2023-03-19T09:26:43.504Z,13.77
2023-03-19T09:29:12.153Z,13.86
2023-03-19T09:31:40.336Z,13.91
2023-03-19T09:34:08.949Z,13.92
2023-03-19T09:36:37.961Z,14.01
2023-03-19T09:39:07.419Z,14.16
2023-03-19T09:41:49.707Z,14.30
2023-03-19T09:44:39.598Z,14.52
2023-03-19T09:47:28.932Z,14.78
2023-03-19T09:50:13.471Z,14.97
2023-03-19T09:52:56.603Z,15.11
2023-03-19T09:55:24.984Z,15.28
2023-03-19T09:57:55.577Z,15.49
2023-03-19T10:00:32.495Z,15.69
2023-03-19T10:03:12.282Z,15.72
2023-03-19T10:06:17.327Z,15.72
2023-03-19T10:08:51.933Z,15.79
2023-03-19T10:11:45.915Z,15.75
2023-03-19T10:14:35.630Z,15.76
2023-03-19T10:17:07.257Z,15.83
2023-03-19T10:19:43.175Z,16.00
2023-03-19T10:22:19.065Z,16.10
2023-03-19T10:24:49.758Z,16.15
2023-03-19T10:27:21.563Z,16.18
2023-03-19T10:29:49.758Z,16.24
2023-03-19T10:32:38.295Z,16.32
2023-03-19T10:35:16.956Z,16.53
2023-03-19T10:37:45.090Z,16.69
2023-03-19T10:40:45.361Z,16.73
2023-03-19T10:43:18.825Z,16.87
2023-03-19T10:45:49.163Z,17.15
2023-03-19T10:48:19.236Z,17.29
2023-03-19T10:51:00.251Z,17.24
2023-03-19T10:53:38.767Z,17.11
2023-03-19T10:56:20.773Z,17.06
2023-03-19T10:59:04.125Z,17.08
2023-03-19T11:01:39.169Z,17.01
2023-03-19T11:04:18.799Z,16.92
2023-03-19T11:06:52.117Z,16.93
2023-03-19T11:09:40.636Z,17.15
2023-03-19T11:12:43.204Z,17.33
2023-03-19T11:15:28.971Z,17.53
2023-03-19T11:17:59.557Z,17.84
2023-03-19T11:20:37.198Z,17.97
2023-03-19T11:23:17.135Z,17.97
2023-03-19T11:25:53.634Z,17.98
2023-03-19T11:28:26.442Z,18.10
2023-03-19T11:31:19.815Z,18.26
2023-03-19T11:33:54.453Z,18.26
2023-03-19T11:36:28.451Z,18.10
2023-03-19T11:39:18.778Z,18.00
2023-03-19T11:42:22.411Z,18.01
2023-03-19T11:45:29.014Z,18.02
2023-03-19T11:48:06.099Z,18.21
2023-03-19T11:51:01.434Z,18.21
2023-03-19T11:54:09.807Z,18.02
2023-03-19T11:56:50.463Z,17.97
2023-03-19T11:59:49.748Z,18.03
2023-03-19T12:02:34.847Z,18.09
2023-03-19T12:05:15.584Z,18.19
2023-03-19T12:07:48.902Z,18.14
2023-03-19T12:10:29.425Z,18.03
2023-03-19T12:13:24.867Z,17.92
2023-03-19T12:16:09.733Z,17.94
2023-03-19T12:18:54.329Z,18.12
2023-03-19T12:21:35.200Z,18.30
2023-03-19T12:24:31.886Z,18.27
2023-03-19T12:27:30.750Z,18.20
2023-03-19T12:30:12.269Z,18.16
2023-03-19T12:33:18.389Z,18.30
2023-03-19T12:35:50.447Z,18.48
2023-03-19T12:38:28.031Z,18.74
2023-03-19T12:41:12.699Z,18.98
2023-03-19T12:44:04.231Z,19.21
2023-03-19T12:46:44.264Z,19.33
2023-03-19T12:49:18.796Z,19.34
2023-03-19T12:51:54.171Z,19.24
2023-03-19T12:54:29.840Z,19.13
2023-03-19T12:57:07.664Z,19.06
2023-03-19T13:00:01.622Z,18.93
2023-03-19T13:02:48.858Z,18.76
2023-03-19T13:05:32.507Z,18.72
2023-03-19T13:08:27.752Z,18.77
2023-03-19T13:10:59.691Z,18.91
2023-03-19T13:13:35.003Z,19.10
2023-03-19T13:16:12.146Z,19.06
2023-03-19T13:18:59.098Z,19.02
2023-03-19T13:21:31.523Z,18.95
2023-03-19T13:24:28.520Z,18.85
2023-03-19T13:27:01.333Z,18.90
2023-03-19T13:29:31.928Z,19.01
2023-03-19T13:32:08.369Z,19.07
2023-03-19T13:34:38.481Z,19.07
2023-03-19T13:37:15.853Z,19.10
2023-03-19T13:39:46.385Z,19.04
2023-03-19T13:42:20.354Z,18.94
2023-03-19T13:45:03.599Z,18.64
2023-03-19T13:47:32.850Z,18.46
2023-03-19T13:50:16.052Z,18.36
2023-03-19T13:52:44.979Z,18.37
2023-03-19T13:55:28.380Z,18.38
2023-03-19T13:58:12.370Z,18.44
2023-03-19T14:00:46.900Z,18.43
2023-03-19T14:03:23.040Z,18.34
2023-03-19T14:05:54.866Z,18.28
2023-03-19T14:08:27.605Z,18.27
2023-03-19T14:10:59.553Z,18.31
2023-03-19T14:13:32.473Z,18.21
2023-03-19T14:16:08.260Z,18.08
2023-03-19T14:18:41.188Z,17.97
2023-03-19T14:21:17.004Z,17.79
2023-03-19T14:23:57.697Z,17.60
2023-03-19T14:26:29.491Z,17.45
2023-03-19T14:29:01.987Z,17.24
2023-03-19T14:31:39.018Z,17.05
2023-03-19T14:34:42.352Z,16.89
2023-03-19T14:37:39.571Z,16.76
2023-03-19T14:40:21.387Z,16.62
2023-03-19T14:43:20.413Z,16.52
2023-03-19T14:45:57.758Z,16.39
2023-03-19T14:48:54.054Z,16.26
2023-03-19T14:51:22.089Z,16.16
2023-03-19T14:53:59.070Z,16.09
2023-03-19T14:56:32.942Z,16.01
2023-03-19T14:59:04.244Z,15.91
2023-03-19T15:01:38.606Z,15.83
2023-03-19T15:04:11.074Z,15.75
2023-03-19T15:06:46.684Z,15.68
2023-03-19T15:09:18.214Z,15.58
2023-03-19T15:11:49.098Z,15.51
2023-03-19T15:14:57.840Z,15.43
2023-03-19T15:17:28.752Z,15.30
2023-03-19T15:20:00.955Z,15.18
2023-03-19T15:22:28.944Z,15.05
2023-03-19T15:25:12.486Z,14.93
2023-03-19T15:27:42.360Z,14.79
2023-03-19T15:30:22.315Z,14.69
2023-03-19T15:33:04.344Z,14.58
2023-03-19T15:35:36.783Z,14.47
2023-03-19T15:38:10.748Z,14.39
2023-03-19T15:40:41.931Z,14.32
2023-03-19T15:43:12.741Z,14.24
2023-03-19T15:45:46.098Z,14.18
2023-03-19T15:48:33.065Z,14.10
2023-03-19T15:51:04.268Z,14.03
2023-03-19T15:53:34.397Z,13.97
2023-03-19T15:56:04.562Z,13.92
2023-03-19T15:58:39.712Z,13.86
2023-03-19T16:01:10.006Z,13.81
2023-03-19T16:03:44.290Z,13.75
2023-03-19T16:06:33.139Z,13.69
2023-03-19T16:09:19.336Z,13.61
2023-03-19T16:11:47.609Z,13.53
2023-03-19T16:14:17.193Z,13.44
2023-03-19T16:16:47.118Z,13.34
2023-03-19T16:19:50.814Z,13.24
2023-03-19T16:22:31.428Z,13.09
2023-03-19T16:25:02.046Z,12.96
2023-03-19T16:27:41.093Z,12.84
2023-03-19T16:30:25.323Z,12.71
2023-03-19T16:33:01.793Z,12.55
2023-03-19T16:35:33.484Z,12.38
2023-03-19T16:38:13.219Z,12.22
2023-03-19T16:40:47.836Z,12.05
2023-03-19T16:43:34.512Z,11.86
2023-03-19T16:46:12.373Z,11.64
2023-03-19T16:48:40.714Z,11.47
2023-03-19T16:51:18.356Z,11.31
2023-03-19T16:53:48.335Z,11.15
2023-03-19T16:56:18.877Z,10.99
2023-03-19T16:58:48.390Z,10.83
2023-03-19T17:01:20.237Z,10.67
2023-03-19T17:03:49.863Z,10.48
2023-03-19T17:06:20.686Z,10.30
2023-03-19T17:08:48.919Z,10.14
2023-03-19T17:11:43.052Z,9.99
2023-03-19T17:14:19.914Z,9.79
2023-03-19T17:16:50.731Z,9.60
2023-03-19T17:19:22.210Z,9.44
2023-03-19T17:21:53.582Z,9.32
2023-03-19T17:24:32.426Z,9.20
2023-03-19T17:27:04.398Z,9.04
2023-03-19T17:29:33.277Z,8.86
2023-03-19T17:32:02.552Z,8.70
2023-03-19T17:34:32.069Z,8.50
2023-03-19T17:37:02.285Z,8.35
2023-03-19T17:39:31.439Z,8.22
2023-03-19T17:42:00.006Z,8.11
2023-03-19T17:44:28.398Z,8.02
2023-03-19T17:46:57.073Z,7.94
2023-03-19T17:49:31.802Z,7.85
2023-03-19T17:52:00.297Z,7.76
2023-03-19T17:54:28.651Z,7.65
2023-03-19T17:56:56.919Z,7.53
2023-03-19T17:59:25.312Z,7.42
2023-03-19T18:01:53.404Z,7.31
2023-03-19T18:04:25.853Z,7.19
2023-03-19T18:06:55.978Z,7.07
2023-03-19T18:09:28.546Z,6.97
2023-03-19T18:11:56.789Z,6.87
2023-03-19T18:14:25.075Z,6.77
2023-03-19T18:16:53.421Z,6.68
2023-03-19T18:19:30.708Z,6.57
2023-03-19T18:21:59.285Z,6.48
2023-03-19T18:24:27.767Z,6.39
2023-03-19T18:26:55.909Z,6.28
2023-03-19T18:29:24.049Z,6.18
2023-03-19T18:31:52.339Z,6.10
2023-03-19T18:34:20.594Z,6.03
2023-03-19T18:36:48.816Z,5.96
2023-03-19T18:39:17.203Z,5.90
2023-03-19T18:41:45.334Z,5.83
2023-03-19T18:44:13.897Z,5.76
2023-03-19T18:46:42.301Z,5.67
2023-03-19T18:49:24.296Z,5.59
2023-03-19T18:52:04.101Z,5.51
2023-03-19T18:54:32.531Z,5.43
2023-03-19T18:57:02.060Z,5.37
2023-03-19T18:59:32.865Z,5.31
2023-03-19T19:02:25.436Z,5.24
2023-03-19T19:04:53.551Z,5.17
2023-03-19T19:07:21.756Z,5.10
2023-03-19T19:09:50.093Z,5.06
2023-03-19T19:12:19.045Z,5.02
2023-03-19T19:14:47.566Z,5.00
2023-03-19T19:17:24.075Z,4.99
2023-03-19T19:19:52.348Z,4.97
2023-03-19T19:22:20.590Z,4.93
2023-03-19T19:24:48.982Z,4.91
2023-03-19T19:27:20.148Z,4.89
2023-03-19T19:29:49.579Z,4.86
2023-03-19T19:32:26.466Z,4.82
2023-03-19T19:34:55.371Z,4.78
2023-03-19T19:37:23.869Z,4.74
2023-03-19T19:39:52.001Z,4.69
2023-03-19T19:42:22.143Z,4.66
2023-03-19T19:44:57.716Z,4.64
2023-03-19T19:47:27.806Z,4.62
2023-03-19T19:49:56.636Z,4.59
2023-03-19T19:52:24.717Z,4.57
2023-03-19T19:54:52.868Z,4.54
2023-03-19T19:57:24.720Z,4.51
2023-03-19T19:59:54.854Z,4.47
2023-03-19T20:02:31.181Z,4.44
2023-03-19T20:04:59.303Z,4.42
2023-03-19T20:07:27.629Z,4.40
2023-03-19T20:09:55.760Z,4.35
2023-03-19T20:12:28.047Z,4.31
2023-03-19T20:14:57.694Z,4.28
2023-03-19T20:17:27.360Z,4.26
2023-03-19T20:19:55.760Z,4.24
2023-03-19T20:22:23.896Z,4.22
2023-03-19T20:24:51.921Z,4.19
2023-03-19T20:27:30.505Z,4.19
2023-03-19T20:29:59.222Z,4.19
2023-03-19T20:32:33.051Z,4.19
2023-03-19T20:35:02.176Z,4.20
2023-03-19T20:37:30.769Z,4.21
2023-03-19T20:39:58.986Z,4.18
2023-03-19T20:42:30.686Z,4.15
2023-03-19T20:44:59.715Z,4.12
2023-03-19T20:47:29.048Z,4.09
2023-03-19T20:49:57.089Z,4.06
2023-03-19T20:52:25.979Z,4.04
2023-03-19T20:54:54.304Z,4.02
2023-03-19T20:57:31.021Z,3.99
2023-03-19T21:00:02.638Z,3.96
2023-03-19T21:02:31.186Z,3.92
2023-03-19T21:04:59.588Z,3.89
2023-03-19T21:07:33.653Z,3.86
2023-03-19T21:10:19.903Z,3.84
2023-03-19T21:12:48.072Z,3.82
2023-03-19T21:15:16.881Z,3.82
2023-03-19T21:17:45.069Z,3.83
2023-03-19T21:20:26.482Z,3.83
2023-03-19T21:23:01.866Z,3.83
2023-03-19T21:25:31.855Z,3.82
2023-03-19T21:28:04.446Z,3.82
2023-03-19T21:30:37.953Z,3.81
2023-03-19T21:33:06.701Z,3.81
2023-03-19T21:35:35.151Z,3.82
2023-03-19T21:38:03.476Z,3.83
2023-03-19T21:40:31.643Z,3.83
2023-03-19T21:43:02.898Z,3.83
2023-03-19T21:45:35.458Z,3.83
2023-03-19T21:48:31.223Z,3.82
2023-03-19T21:51:04.181Z,3.80
2023-03-19T21:53:32.844Z,3.79
2023-03-19T21:56:01.535Z,3.78
2023-03-19T21:58:35.379Z,3.77
2023-03-19T22:01:04.803Z,3.76
2023-03-19T22:03:34.338Z,3.73
2023-03-19T22:06:02.371Z,3.67
2023-03-19T22:08:30.632Z,3.59
2023-03-19T22:11:02.780Z,3.52
2023-03-19T22:13:34.264Z,3.46
2023-03-19T22:16:02.423Z,3.42
2023-03-19T22:18:30.491Z,3.37
2023-03-19T22:20:58.553Z,3.33
2023-03-19T22:23:26.676Z,3.28
2023-03-19T22:25:54.984Z,3.25
2023-03-19T22:28:34.013Z,3.23
2023-03-19T22:31:03.324Z,3.21
2023-03-19T22:33:31.656Z,3.19
2023-03-19T22:35:59.794Z,3.17
2023-03-19T22:38:27.979Z,3.13
2023-03-19T22:40:56.643Z,3.08
2023-03-19T22:43:33.708Z,3.03
2023-03-19T22:46:09.258Z,2.99
2023-03-19T22:48:38.665Z,2.95
2023-03-19T22:51:07.040Z,2.94
2023-03-19T22:53:36.976Z,2.95
2023-03-19T22:56:05.651Z,2.96
2023-03-19T22:58:33.758Z,2.99
2023-03-19T23:01:01.883Z,2.97
2023-03-19T23:03:30.946Z,2.95
2023-03-19T23:06:08.979Z,2.95
2023-03-19T23:08:38.606Z,2.94
2023-03-19T23:11:10.153Z,2.93
2023-03-19T23:13:38.252Z,2.92
2023-03-19T23:16:20.983Z,2.92
2023-03-19T23:18:49.841Z,2.91
2023-03-19T23:21:19.596Z,2.85
2023-03-19T23:23:47.697Z,2.80
2023-03-19T23:26:31.564Z,2.77
2023-03-19T23:29:05.803Z,2.76
2023-03-19T23:31:34.497Z,2.74
2023-03-19T23:34:02.904Z,2.73
2023-03-19T23:36:31.451Z,2.73
2023-03-19T23:38:59.537Z,2.74
2023-03-19T23:41:30.001Z,2.76
2023-03-19T23:44:02.118Z,2.77
2023-03-19T23:46:33.799Z,2.78
2023-03-19T23:49:01.922Z,2.78
2023-03-19T23:51:30.085Z,2.78
2023-03-19T23:53:58.165Z,2.79
2023-03-19T23:56:27.567Z,2.78
